sensor_id;sensor_type;location;lat;lon;timestamp;P1;durP1;ratioP1;P2;durP2;ratioP2
36189;SDS011;22232;50.914;13.858;2023-04-25T00:01:25;5.85;;;4.38;;
36189;SDS011;22232;50.914;13.858;2023-04-25T00:03:53;5.93;;;4.22;;
36189;SDS011;22232;50.914;13.858;2023-04-25T00:06:22;8.05;;;4.75;;
36189;SDS011;22232;50.914;13.858;2023-04-25T00:08:53;7.40;;;4.60;;
36189;SDS011;22232;50.914;13.858;2023-04-25T00:11:22;7.35;;;4.38;;
36189;SDS011;22232;50.914;13.858;2023-04-25T00:13:51;8.00;;;4.70;;
36189;SDS011;22232;50.914;13.858;2023-04-25T00:16:18;7.22;;;4.40;;
36189;SDS011;22232;50.914;13.858;2023-04-25T00:18:46;8.10;;;4.90;;
36189;SDS011;22232;50.914;13.858;2023-04-25T00:21:18;7.35;;;4.35;;
36189;SDS011;22232;50.914;13.858;2023-04-25T00:23:46;7.28;;;4.70;;
36189;SDS011;22232;50.914;13.858;2023-04-25T00:26:14;6.32;;;4.22;;
36189;SDS011;22232;50.914;13.858;2023-04-25T00:28:42;6.97;;;4.72;;
36189;SDS011;22232;50.914;13.858;2023-04-25T00:31:09;7.00;;;4.65;;
36189;SDS011;22232;50.914;13.858;2023-04-25T00:33:37;7.88;;;5.00;;
36189;SDS011;22232;50.914;13.858;2023-04-25T00:36:05;9.25;;;5.25;;
36189;SDS011;22232;50.914;13.858;2023-04-25T00:38:33;7.45;;;5.20;;
36189;SDS011;22232;50.914;13.858;2023-04-25T00:41:00;7.47;;;5.22;;
36189;SDS011;22232;50.914;13.858;2023-04-25T00:43:28;10.02;;;5.38;;
36189;SDS011;22232;50.914;13.858;2023-04-25T00:45:57;9.73;;;6.07;;
36189;SDS011;22232;50.914;13.858;2023-04-25T00:48:27;9.13;;;5.90;;
36189;SDS011;22232;50.914;13.858;2023-04-25T00:50:56;10.02;;;5.95;;
36189;SDS011;22232;50.914;13.858;2023-04-25T00:53:27;8.27;;;5.88;;
36189;SDS011;22232;50.914;13.858;2023-04-25T00:55:55;10.38;;;5.75;;
36189;SDS011;22232;50.914;13.858;2023-04-25T00:58:23;9.07;;;6.10;;
36189;SDS011;22232;50.914;13.858;2023-04-25T01:00:51;8.65;;;5.63;;
36189;SDS011;22232;50.914;13.858;2023-04-25T01:03:19;11.48;;;6.07;;
36189;SDS011;22232;50.914;13.858;2023-04-25T01:05:47;10.68;;;6.72;;
36189;SDS011;22232;50.914;13.858;2023-04-25T01:08:15;9.63;;;6.60;;
36189;SDS011;22232;50.914;13.858;2023-04-25T01:10:43;12.23;;;6.18;;
36189;SDS011;22232;50.914;13.858;2023-04-25T01:13:10;9.55;;;5.75;;
36189;SDS011;22232;50.914;13.858;2023-04-25T01:15:38;11.32;;;6.63;;
36189;SDS011;22232;50.914;13.858;2023-04-25T01:18:06;8.68;;;5.93;;
36189;SDS011;22232;50.914;13.858;2023-04-25T01:20:34;9.70;;;6.22;;
36189;SDS011;22232;50.914;13.858;2023-04-25T01:23:01;8.48;;;5.70;;
36189;SDS011;22232;50.914;13.858;2023-04-25T01:25:30;14.50;;;7.32;;
36189;SDS011;22232;50.914;13.858;2023-04-25T01:27:58;12.63;;;6.78;;
36189;SDS011;22232;50.914;13.858;2023-04-25T01:30:27;12.88;;;5.97;;
36189;SDS011;22232;50.914;13.858;2023-04-25T01:32:56;13.30;;;6.18;;
36189;SDS011;22232;50.914;13.858;2023-04-25T01:35:24;10.93;;;6.07;;
36189;SDS011;22232;50.914;13.858;2023-04-25T01:37:55;12.00;;;6.63;;
36189;SDS011;22232;50.914;13.858;2023-04-25T01:40:22;12.32;;;6.65;;
36189;SDS011;22232;50.914;13.858;2023-04-25T01:42:51;11.68;;;6.78;;
36189;SDS011;22232;50.914;13.858;2023-04-25T01:45:20;9.75;;;5.70;;
36189;SDS011;22232;50.914;13.858;2023-04-25T01:47:48;9.63;;;5.75;;
36189;SDS011;22232;50.914;13.858;2023-04-25T01:50:17;11.98;;;6.22;;
36189;SDS011;22232;50.914;13.858;2023-04-25T01:52:45;11.25;;;7.05;;
36189;SDS011;22232;50.914;13.858;2023-04-25T01:55:13;11.38;;;6.10;;
36189;SDS011;22232;50.914;13.858;2023-04-25T01:58:01;11.15;;;6.07;;
36189;SDS011;22232;50.914;13.858;2023-04-25T02:01:02;10.55;;;5.97;;
36189;SDS011;22232;50.914;13.858;2023-04-25T02:03:38;8.85;;;5.68;;
36189;SDS011;22232;50.914;13.858;2023-04-25T02:06:11;11.32;;;6.05;;
36189;SDS011;22232;50.914;13.858;2023-04-25T02:08:42;12.15;;;6.80;;
36189;SDS011;22232;50.914;13.858;2023-04-25T02:11:11;13.48;;;6.57;;
36189;SDS011;22232;50.914;13.858;2023-04-25T02:13:46;12.13;;;6.70;;
36189;SDS011;22232;50.914;13.858;2023-04-25T02:16:42;11.60;;;6.55;;
36189;SDS011;22232;50.914;13.858;2023-04-25T02:19:11;8.77;;;5.72;;
36189;SDS011;22232;50.914;13.858;2023-04-25T02:21:39;11.13;;;6.18;;
36189;SDS011;22232;50.914;13.858;2023-04-25T02:24:07;10.07;;;6.65;;
36189;SDS011;22232;50.914;13.858;2023-04-25T02:26:35;10.70;;;6.30;;
36189;SDS011;22232;50.914;13.858;2023-04-25T02:29:07;9.80;;;6.47;;
36189;SDS011;22232;50.914;13.858;2023-04-25T02:31:34;10.40;;;6.88;;
36189;SDS011;22232;50.914;13.858;2023-04-25T02:34:02;9.05;;;6.32;;
36189;SDS011;22232;50.914;13.858;2023-04-25T02:36:29;14.57;;;7.13;;
36189;SDS011;22232;50.914;13.858;2023-04-25T02:39:01;14.88;;;6.47;;
36189;SDS011;22232;50.914;13.858;2023-04-25T02:41:30;13.43;;;6.47;;
36189;SDS011;22232;50.914;13.858;2023-04-25T02:43:57;11.32;;;6.45;;
36189;SDS011;22232;50.914;13.858;2023-04-25T02:46:25;11.80;;;6.43;;
36189;SDS011;22232;50.914;13.858;2023-04-25T02:49:06;13.70;;;6.50;;
36189;SDS011;22232;50.914;13.858;2023-04-25T02:51:34;12.15;;;7.10;;
36189;SDS011;22232;50.914;13.858;2023-04-25T02:54:02;10.07;;;6.65;;
36189;SDS011;22232;50.914;13.858;2023-04-25T02:56:33;15.18;;;6.43;;
36189;SDS011;22232;50.914;13.858;2023-04-25T02:59:02;9.13;;;6.53;;
36189;SDS011;22232;50.914;13.858;2023-04-25T03:01:31;14.10;;;6.88;;
36189;SDS011;22232;50.914;13.858;2023-04-25T03:03:58;11.38;;;7.05;;
36189;SDS011;22232;50.914;13.858;2023-04-25T03:06:26;11.27;;;6.53;;
36189;SDS011;22232;50.914;13.858;2023-04-25T03:08:54;10.45;;;6.85;;
36189;SDS011;22232;50.914;13.858;2023-04-25T03:11:21;11.65;;;7.10;;
36189;SDS011;22232;50.914;13.858;2023-04-25T03:13:49;14.52;;;6.50;;
36189;SDS011;22232;50.914;13.858;2023-04-25T03:16:17;11.38;;;7.00;;
36189;SDS011;22232;50.914;13.858;2023-04-25T03:18:44;11.23;;;6.60;;
36189;SDS011;22232;50.914;13.858;2023-04-25T03:21:12;10.68;;;6.65;;
36189;SDS011;22232;50.914;13.858;2023-04-25T03:23:39;14.77;;;7.00;;
36189;SDS011;22232;50.914;13.858;2023-04-25T03:26:07;11.65;;;7.40;;
36189;SDS011;22232;50.914;13.858;2023-04-25T03:28:35;14.65;;;7.85;;
36189;SDS011;22232;50.914;13.858;2023-04-25T03:31:02;14.90;;;7.38;;
36189;SDS011;22232;50.914;13.858;2023-04-25T03:33:30;14.82;;;7.10;;
36189;SDS011;22232;50.914;13.858;2023-04-25T03:35:58;11.85;;;6.80;;
36189;SDS011;22232;50.914;13.858;2023-04-25T03:38:27;15.98;;;7.22;;
36189;SDS011;22232;50.914;13.858;2023-04-25T03:40:54;12.75;;;6.68;;
36189;SDS011;22232;50.914;13.858;2023-04-25T03:43:36;11.63;;;6.57;;
36189;SDS011;22232;50.914;13.858;2023-04-25T03:46:09;13.85;;;7.22;;
36189;SDS011;22232;50.914;13.858;2023-04-25T03:48:38;15.60;;;6.95;;
36189;SDS011;22232;50.914;13.858;2023-04-25T03:51:06;13.10;;;6.78;;
36189;SDS011;22232;50.914;13.858;2023-04-25T03:53:37;13.68;;;6.55;;
36189;SDS011;22232;50.914;13.858;2023-04-25T03:56:28;12.50;;;6.90;;
36189;SDS011;22232;50.914;13.858;2023-04-25T03:59:02;11.68;;;7.00;;
36189;SDS011;22232;50.914;13.858;2023-04-25T04:01:30;11.48;;;6.70;;
36189;SDS011;22232;50.914;13.858;2023-04-25T04:03:57;10.85;;;7.15;;
36189;SDS011;22232;50.914;13.858;2023-04-25T04:06:26;12.77;;;7.30;;
36189;SDS011;22232;50.914;13.858;2023-04-25T04:09:02;13.70;;;7.38;;
36189;SDS011;22232;50.914;13.858;2023-04-25T04:11:34;12.27;;;6.78;;
36189;SDS011;22232;50.914;13.858;2023-04-25T04:14:07;13.63;;;7.15;;
36189;SDS011;22232;50.914;13.858;2023-04-25T04:16:37;9.82;;;6.43;;
36189;SDS011;22232;50.914;13.858;2023-04-25T04:19:05;11.70;;;6.97;;
36189;SDS011;22232;50.914;13.858;2023-04-25T04:21:33;13.55;;;6.72;;
36189;SDS011;22232;50.914;13.858;2023-04-25T04:24:02;12.73;;;7.03;;
36189;SDS011;22232;50.914;13.858;2023-04-25T04:26:39;14.82;;;7.00;;
36189;SDS011;22232;50.914;13.858;2023-04-25T04:29:26;12.77;;;6.30;;
36189;SDS011;22232;50.914;13.858;2023-04-25T04:32:01;11.13;;;6.93;;
36189;SDS011;22232;50.914;13.858;2023-04-25T04:34:31;10.88;;;6.90;;
36189;SDS011;22232;50.914;13.858;2023-04-25T04:37:01;10.43;;;6.05;;
36189;SDS011;22232;50.914;13.858;2023-04-25T04:39:29;10.35;;;6.57;;
36189;SDS011;22232;50.914;13.858;2023-04-25T04:42:05;11.88;;;6.53;;
36189;SDS011;22232;50.914;13.858;2023-04-25T04:44:44;8.90;;;5.88;;
36189;SDS011;22232;50.914;13.858;2023-04-25T04:47:42;9.80;;;5.80;;
36189;SDS011;22232;50.914;13.858;2023-04-25T04:50:15;14.63;;;6.88;;
36189;SDS011;22232;50.914;13.858;2023-04-25T04:53:03;11.50;;;6.15;;
36189;SDS011;22232;50.914;13.858;2023-04-25T04:55:40;10.27;;;5.90;;
36189;SDS011;22232;50.914;13.858;2023-04-25T04:58:28;10.48;;;5.97;;
36189;SDS011;22232;50.914;13.858;2023-04-25T05:01:25;9.98;;;5.43;;
36189;SDS011;22232;50.914;13.858;2023-04-25T05:04:17;9.93;;;5.95;;
36189;SDS011;22232;50.914;13.858;2023-04-25T05:06:58;8.15;;;5.55;;
36189;SDS011;22232;50.914;13.858;2023-04-25T05:09:55;11.00;;;6.47;;
36189;SDS011;22232;50.914;13.858;2023-04-25T05:12:41;11.02;;;5.90;;
36189;SDS011;22232;50.914;13.858;2023-04-25T05:15:32;11.93;;;6.35;;
36189;SDS011;22232;50.914;13.858;2023-04-25T05:18:28;16.15;;;8.02;;
36189;SDS011;22232;50.914;13.858;2023-04-25T05:21:05;16.83;;;8.48;;
36189;SDS011;22232;50.914;13.858;2023-04-25T05:23:45;15.82;;;7.25;;
36189;SDS011;22232;50.914;13.858;2023-04-25T05:26:32;11.43;;;6.95;;
36189;SDS011;22232;50.914;13.858;2023-04-25T05:29:20;10.02;;;6.10;;
36189;SDS011;22232;50.914;13.858;2023-04-25T05:32:16;11.82;;;5.82;;
36189;SDS011;22232;50.914;13.858;2023-04-25T05:34:47;11.35;;;5.50;;
36189;SDS011;22232;50.914;13.858;2023-04-25T05:37:23;9.38;;;5.25;;
36189;SDS011;22232;50.914;13.858;2023-04-25T05:40:09;10.63;;;5.13;;
36189;SDS011;22232;50.914;13.858;2023-04-25T05:43:06;9.02;;;5.32;;
36189;SDS011;22232;50.914;13.858;2023-04-25T05:46:03;9.98;;;5.45;;
36189;SDS011;22232;50.914;13.858;2023-04-25T05:48:50;8.55;;;5.28;;
36189;SDS011;22232;50.914;13.858;2023-04-25T05:51:36;9.45;;;4.85;;
36189;SDS011;22232;50.914;13.858;2023-04-25T05:54:06;10.32;;;5.63;;
36189;SDS011;22232;50.914;13.858;2023-04-25T05:56:34;10.48;;;5.00;;
36189;SDS011;22232;50.914;13.858;2023-04-25T05:59:02;8.30;;;4.63;;
36189;SDS011;22232;50.914;13.858;2023-04-25T06:01:30;9.38;;;4.90;;
36189;SDS011;22232;50.914;13.858;2023-04-25T06:03:58;9.50;;;4.43;;
36189;SDS011;22232;50.914;13.858;2023-04-25T06:06:26;8.73;;;4.50;;
36189;SDS011;22232;50.914;13.858;2023-04-25T06:08:54;7.95;;;4.50;;
36189;SDS011;22232;50.914;13.858;2023-04-25T06:11:23;8.75;;;4.47;;
36189;SDS011;22232;50.914;13.858;2023-04-25T06:13:50;5.90;;;4.20;;
36189;SDS011;22232;50.914;13.858;2023-04-25T06:16:19;8.02;;;4.20;;
36189;SDS011;22232;50.914;13.858;2023-04-25T06:18:46;8.15;;;4.45;;
36189;SDS011;22232;50.914;13.858;2023-04-25T06:21:15;7.55;;;4.22;;
36189;SDS011;22232;50.914;13.858;2023-04-25T06:23:42;10.93;;;4.85;;
36189;SDS011;22232;50.914;13.858;2023-04-25T06:26:12;6.10;;;3.85;;
36189;SDS011;22232;50.914;13.858;2023-04-25T06:28:42;11.68;;;3.80;;
36189;SDS011;22232;50.914;13.858;2023-04-25T06:31:10;6.45;;;3.60;;
36189;SDS011;22232;50.914;13.858;2023-04-25T06:33:40;6.43;;;3.63;;
36189;SDS011;22232;50.914;13.858;2023-04-25T06:36:07;7.32;;;3.85;;
36189;SDS011;22232;50.914;13.858;2023-04-25T06:38:36;5.53;;;3.15;;
36189;SDS011;22232;50.914;13.858;2023-04-25T06:41:03;9.43;;;3.30;;
36189;SDS011;22232;50.914;13.858;2023-04-25T06:43:35;7.50;;;3.83;;
36189;SDS011;22232;50.914;13.858;2023-04-25T06:46:31;7.57;;;3.58;;
36189;SDS011;22232;50.914;13.858;2023-04-25T06:48:59;7.30;;;3.40;;
36189;SDS011;22232;50.914;13.858;2023-04-25T06:51:27;7.15;;;3.30;;
36189;SDS011;22232;50.914;13.858;2023-04-25T06:53:57;5.38;;;3.63;;
36189;SDS011;22232;50.914;13.858;2023-04-25T06:56:36;6.88;;;3.72;;
36189;SDS011;22232;50.914;13.858;2023-04-25T06:59:14;5.78;;;3.67;;
36189;SDS011;22232;50.914;13.858;2023-04-25T07:01:44;8.57;;;4.10;;
36189;SDS011;22232;50.914;13.858;2023-04-25T07:04:17;6.47;;;3.55;;
36189;SDS011;22232;50.914;13.858;2023-04-25T07:06:50;4.93;;;3.28;;
36189;SDS011;22232;50.914;13.858;2023-04-25T07:09:22;6.85;;;3.47;;
36189;SDS011;22232;50.914;13.858;2023-04-25T07:11:51;6.10;;;3.22;;
36189;SDS011;22232;50.914;13.858;2023-04-25T07:14:18;8.90;;;3.60;;
36189;SDS011;22232;50.914;13.858;2023-04-25T07:16:46;8.10;;;3.33;;
36189;SDS011;22232;50.914;13.858;2023-04-25T07:19:14;7.00;;;3.85;;
36189;SDS011;22232;50.914;13.858;2023-04-25T07:21:41;4.68;;;3.55;;
36189;SDS011;22232;50.914;13.858;2023-04-25T07:24:10;5.68;;;3.45;;
36189;SDS011;22232;50.914;13.858;2023-04-25T07:26:42;6.68;;;3.55;;
36189;SDS011;22232;50.914;13.858;2023-04-25T07:29:19;8.55;;;3.45;;
36189;SDS011;22232;50.914;13.858;2023-04-25T07:31:46;6.03;;;3.45;;
36189;SDS011;22232;50.914;13.858;2023-04-25T07:34:14;6.70;;;3.97;;
36189;SDS011;22232;50.914;13.858;2023-04-25T07:36:43;5.00;;;3.70;;
36189;SDS011;22232;50.914;13.858;2023-04-25T07:39:12;7.05;;;4.50;;
36189;SDS011;22232;50.914;13.858;2023-04-25T07:41:41;6.90;;;3.85;;
36189;SDS011;22232;50.914;13.858;2023-04-25T07:44:14;7.30;;;4.47;;
36189;SDS011;22232;50.914;13.858;2023-04-25T07:46:42;7.68;;;4.18;;
36189;SDS011;22232;50.914;13.858;2023-04-25T07:49:10;8.25;;;4.03;;
36189;SDS011;22232;50.914;13.858;2023-04-25T07:51:39;6.05;;;4.43;;
36189;SDS011;22232;50.914;13.858;2023-04-25T07:54:12;8.30;;;4.82;;
36189;SDS011;22232;50.914;13.858;2023-04-25T07:56:45;8.32;;;4.85;;
36189;SDS011;22232;50.914;13.858;2023-04-25T07:59:22;8.65;;;4.68;;
36189;SDS011;22232;50.914;13.858;2023-04-25T08:01:50;11.05;;;5.07;;
36189;SDS011;22232;50.914;13.858;2023-04-25T08:04:19;8.73;;;4.82;;
36189;SDS011;22232;50.914;13.858;2023-04-25T08:06:52;7.17;;;4.30;;
36189;SDS011;22232;50.914;13.858;2023-04-25T08:09:24;8.82;;;4.60;;
36189;SDS011;22232;50.914;13.858;2023-04-25T08:11:53;8.90;;;4.65;;
36189;SDS011;22232;50.914;13.858;2023-04-25T08:14:26;10.80;;;4.87;;
36189;SDS011;22232;50.914;13.858;2023-04-25T08:16:53;7.45;;;4.15;;
36189;SDS011;22232;50.914;13.858;2023-04-25T08:19:21;9.68;;;4.55;;
36189;SDS011;22232;50.914;13.858;2023-04-25T08:21:48;7.05;;;4.13;;
36189;SDS011;22232;50.914;13.858;2023-04-25T08:24:23;8.75;;;3.90;;
36189;SDS011;22232;50.914;13.858;2023-04-25T08:26:51;7.00;;;3.80;;
36189;SDS011;22232;50.914;13.858;2023-04-25T08:29:21;6.82;;;3.13;;
36189;SDS011;22232;50.914;13.858;2023-04-25T08:31:50;6.95;;;3.40;;
36189;SDS011;22232;50.914;13.858;2023-04-25T08:34:20;5.93;;;2.92;;
36189;SDS011;22232;50.914;13.858;2023-04-25T08:36:49;3.75;;;2.70;;
36189;SDS011;22232;50.914;13.858;2023-04-25T08:39:38;4.82;;;3.20;;
36189;SDS011;22232;50.914;13.858;2023-04-25T08:42:26;4.60;;;2.85;;
36189;SDS011;22232;50.914;13.858;2023-04-25T08:44:56;5.13;;;2.90;;
36189;SDS011;22232;50.914;13.858;2023-04-25T08:47:30;4.57;;;2.70;;
36189;SDS011;22232;50.914;13.858;2023-04-25T08:50:02;5.85;;;2.60;;
36189;SDS011;22232;50.914;13.858;2023-04-25T08:52:35;5.75;;;2.58;;
36189;SDS011;22232;50.914;13.858;2023-04-25T08:55:06;4.15;;;1.77;;
36189;SDS011;22232;50.914;13.858;2023-04-25T08:57:37;3.85;;;1.60;;
36189;SDS011;22232;50.914;13.858;2023-04-25T09:00:08;4.07;;;2.13;;
36189;SDS011;22232;50.914;13.858;2023-04-25T09:02:40;3.63;;;2.30;;
36189;SDS011;22232;50.914;13.858;2023-04-25T09:05:12;5.38;;;2.53;;
36189;SDS011;22232;50.914;13.858;2023-04-25T09:07:41;5.70;;;2.42;;
36189;SDS011;22232;50.914;13.858;2023-04-25T09:10:09;3.00;;;2.00;;
36189;SDS011;22232;50.914;13.858;2023-04-25T09:12:38;5.03;;;2.00;;
36189;SDS011;22232;50.914;13.858;2023-04-25T09:15:08;8.02;;;1.90;;
36189;SDS011;22232;50.914;13.858;2023-04-25T09:18:01;7.32;;;2.13;;
36189;SDS011;22232;50.914;13.858;2023-04-25T09:20:34;3.20;;;2.00;;
36189;SDS011;22232;50.914;13.858;2023-04-25T09:23:14;5.38;;;2.38;;
36189;SDS011;22232;50.914;13.858;2023-04-25T09:25:42;4.25;;;2.00;;
36189;SDS011;22232;50.914;13.858;2023-04-25T09:28:10;3.40;;;1.83;;
36189;SDS011;22232;50.914;13.858;2023-04-25T09:30:38;4.30;;;2.38;;
36189;SDS011;22232;50.914;13.858;2023-04-25T09:33:29;5.05;;;3.15;;
36189;SDS011;22232;50.914;13.858;2023-04-25T09:36:01;5.60;;;2.83;;
36189;SDS011;22232;50.914;13.858;2023-04-25T09:38:59;4.75;;;3.30;;
36189;SDS011;22232;50.914;13.858;2023-04-25T09:41:29;8.23;;;3.65;;
36189;SDS011;22232;50.914;13.858;2023-04-25T09:44:00;9.85;;;4.60;;
36189;SDS011;22232;50.914;13.858;2023-04-25T09:46:35;10.48;;;4.53;;
36189;SDS011;22232;50.914;13.858;2023-04-25T09:49:11;9.30;;;4.07;;
36189;SDS011;22232;50.914;13.858;2023-04-25T09:51:57;12.60;;;4.45;;
36189;SDS011;22232;50.914;13.858;2023-04-25T09:54:31;5.43;;;3.42;;
36189;SDS011;22232;50.914;13.858;2023-04-25T09:57:11;9.02;;;4.32;;
36189;SDS011;22232;50.914;13.858;2023-04-25T09:59:42;10.90;;;3.95;;
36189;SDS011;22232;50.914;13.858;2023-04-25T10:04:51;6.50;;;4.45;;
36189;SDS011;22232;50.914;13.858;2023-04-25T10:07:29;10.02;;;4.45;;
36189;SDS011;22232;50.914;13.858;2023-04-25T10:10:00;7.40;;;4.22;;
36189;SDS011;22232;50.914;13.858;2023-04-25T10:12:31;6.70;;;4.10;;
36189;SDS011;22232;50.914;13.858;2023-04-25T10:15:00;7.97;;;4.20;;
36189;SDS011;22232;50.914;13.858;2023-04-25T10:17:30;8.23;;;4.43;;
36189;SDS011;22232;50.914;13.858;2023-04-25T10:19:58;6.22;;;3.83;;
36189;SDS011;22232;50.914;13.858;2023-04-25T10:22:34;7.72;;;4.60;;
36189;SDS011;22232;50.914;13.858;2023-04-25T10:25:04;5.00;;;3.90;;
36189;SDS011;22232;50.914;13.858;2023-04-25T10:27:33;6.32;;;3.83;;
36189;SDS011;22232;50.914;13.858;2023-04-25T10:30:05;4.85;;;3.88;;
36189;SDS011;22232;50.914;13.858;2023-04-25T10:32:38;6.32;;;4.10;;
36189;SDS011;22232;50.914;13.858;2023-04-25T10:37:56;7.63;;;4.28;;
36189;SDS011;22232;50.914;13.858;2023-04-25T10:40:24;7.78;;;4.60;;
36189;SDS011;22232;50.914;13.858;2023-04-25T10:42:52;6.97;;;4.25;;
36189;SDS011;22232;50.914;13.858;2023-04-25T10:45:21;4.10;;;3.50;;
36189;SDS011;22232;50.914;13.858;2023-04-25T10:47:49;6.38;;;3.85;;
36189;SDS011;22232;50.914;13.858;2023-04-25T10:50:17;6.28;;;4.18;;
36189;SDS011;22232;50.914;13.858;2023-04-25T10:52:44;7.38;;;4.55;;
36189;SDS011;22232;50.914;13.858;2023-04-25T10:55:12;5.22;;;4.10;;
36189;SDS011;22232;50.914;13.858;2023-04-25T10:57:40;9.93;;;4.97;;
36189;SDS011;22232;50.914;13.858;2023-04-25T11:00:17;8.95;;;5.50;;
36189;SDS011;22232;50.914;13.858;2023-04-25T11:05:35;8.55;;;4.97;;
36189;SDS011;22232;50.914;13.858;2023-04-25T11:08:29;5.70;;;4.68;;
36189;SDS011;22232;50.914;13.858;2023-04-25T11:11:18;10.43;;;4.63;;
36189;SDS011;22232;50.914;13.858;2023-04-25T11:13:49;7.95;;;4.70;;
36189;SDS011;22232;50.914;13.858;2023-04-25T11:16:17;6.82;;;4.45;;
36189;SDS011;22232;50.914;13.858;2023-04-25T11:18:56;7.28;;;5.43;;
36189;SDS011;22232;50.914;13.858;2023-04-25T11:21:25;9.65;;;5.03;;
36189;SDS011;22232;50.914;13.858;2023-04-25T11:23:56;10.35;;;5.38;;
36189;SDS011;22232;50.914;13.858;2023-04-25T11:26:24;9.20;;;5.55;;
36189;SDS011;22232;50.914;13.858;2023-04-25T11:28:55;8.68;;;4.45;;
36189;SDS011;22232;50.914;13.858;2023-04-25T11:31:25;6.90;;;4.35;;
36189;SDS011;22232;50.914;13.858;2023-04-25T11:33:53;8.68;;;6.28;;
36189;SDS011;22232;50.914;13.858;2023-04-25T11:36:24;12.18;;;6.93;;
36189;SDS011;22232;50.914;13.858;2023-04-25T11:38:52;12.65;;;7.75;;
36189;SDS011;22232;50.914;13.858;2023-04-25T11:41:20;14.23;;;8.13;;
36189;SDS011;22232;50.914;13.858;2023-04-25T11:43:49;18.02;;;8.18;;
36189;SDS011;22232;50.914;13.858;2023-04-25T11:46:19;12.27;;;8.23;;
36189;SDS011;22232;50.914;13.858;2023-04-25T11:48:47;14.43;;;8.60;;
36189;SDS011;22232;50.914;13.858;2023-04-25T11:51:15;13.43;;;7.70;;
36189;SDS011;22232;50.914;13.858;2023-04-25T11:53:46;10.27;;;6.93;;
36189;SDS011;22232;50.914;13.858;2023-04-25T11:56:14;12.45;;;7.63;;
36189;SDS011;22232;50.914;13.858;2023-04-25T11:58:55;11.98;;;6.88;;
36189;SDS011;22232;50.914;13.858;2023-04-25T12:01:27;11.52;;;5.25;;
36189;SDS011;22232;50.914;13.858;2023-04-25T12:04:12;18.77;;;5.05;;
36189;SDS011;22232;50.914;13.858;2023-04-25T12:06:42;6.32;;;4.28;;
36189;SDS011;22232;50.914;13.858;2023-04-25T12:09:11;9.30;;;4.03;;
36189;SDS011;22232;50.914;13.858;2023-04-25T12:11:40;8.98;;;4.18;;
36189;SDS011;22232;50.914;13.858;2023-04-25T12:14:10;7.78;;;4.05;;
36189;SDS011;22232;50.914;13.858;2023-04-25T12:16:44;10.95;;;4.68;;
36189;SDS011;22232;50.914;13.858;2023-04-25T12:19:14;9.23;;;4.68;;
36189;SDS011;22232;50.914;13.858;2023-04-25T12:21:42;10.02;;;3.88;;
36189;SDS011;22232;50.914;13.858;2023-04-25T12:24:26;8.07;;;4.00;;
36189;SDS011;22232;50.914;13.858;2023-04-25T12:27:02;13.98;;;4.15;;
36189;SDS011;22232;50.914;13.858;2023-04-25T12:29:32;9.85;;;4.32;;
36189;SDS011;22232;50.914;13.858;2023-04-25T12:32:15;10.65;;;4.00;;
36189;SDS011;22232;50.914;13.858;2023-04-25T12:34:43;10.65;;;4.32;;
36189;SDS011;22232;50.914;13.858;2023-04-25T12:37:10;10.25;;;4.70;;
36189;SDS011;22232;50.914;13.858;2023-04-25T12:39:38;10.90;;;3.90;;
36189;SDS011;22232;50.914;13.858;2023-04-25T12:42:06;9.60;;;4.05;;
36189;SDS011;22232;50.914;13.858;2023-04-25T12:44:40;8.43;;;3.92;;
36189;SDS011;22232;50.914;13.858;2023-04-25T12:47:08;10.75;;;3.47;;
36189;SDS011;22232;50.914;13.858;2023-04-25T12:49:36;13.00;;;3.67;;
36189;SDS011;22232;50.914;13.858;2023-04-25T12:52:04;9.38;;;3.38;;
36189;SDS011;22232;50.914;13.858;2023-04-25T12:54:32;10.07;;;3.63;;
36189;SDS011;22232;50.914;13.858;2023-04-25T12:56:59;11.88;;;3.58;;
36189;SDS011;22232;50.914;13.858;2023-04-25T12:59:28;9.52;;;3.58;;
36189;SDS011;22232;50.914;13.858;2023-04-25T13:01:56;10.10;;;3.08;;
36189;SDS011;22232;50.914;13.858;2023-04-25T13:04:23;10.80;;;3.25;;
36189;SDS011;22232;50.914;13.858;2023-04-25T13:06:51;10.18;;;3.40;;
36189;SDS011;22232;50.914;13.858;2023-04-25T13:09:19;9.13;;;3.53;;
36189;SDS011;22232;50.914;13.858;2023-04-25T13:11:47;9.07;;;3.20;;
36189;SDS011;22232;50.914;13.858;2023-04-25T13:14:15;9.48;;;3.17;;
36189;SDS011;22232;50.914;13.858;2023-04-25T13:16:42;10.18;;;3.80;;
36189;SDS011;22232;50.914;13.858;2023-04-25T13:19:10;12.70;;;3.60;;
36189;SDS011;22232;50.914;13.858;2023-04-25T13:21:38;8.73;;;3.58;;
36189;SDS011;22232;50.914;13.858;2023-04-25T13:24:06;10.30;;;3.70;;
36189;SDS011;22232;50.914;13.858;2023-04-25T13:26:34;10.18;;;3.50;;
36189;SDS011;22232;50.914;13.858;2023-04-25T13:29:01;13.32;;;3.92;;
36189;SDS011;22232;50.914;13.858;2023-04-25T13:31:31;9.65;;;3.67;;
36189;SDS011;22232;50.914;13.858;2023-04-25T13:33:58;10.60;;;3.95;;
36189;SDS011;22232;50.914;13.858;2023-04-25T13:36:26;10.68;;;4.25;;
36189;SDS011;22232;50.914;13.858;2023-04-25T13:38:54;15.45;;;5.00;;
36189;SDS011;22232;50.914;13.858;2023-04-25T13:41:22;15.52;;;4.75;;
36189;SDS011;22232;50.914;13.858;2023-04-25T13:43:50;12.52;;;5.00;;
36189;SDS011;22232;50.914;13.858;2023-04-25T13:46:18;12.00;;;4.57;;
36189;SDS011;22232;50.914;13.858;2023-04-25T13:48:48;12.38;;;5.28;;
36189;SDS011;22232;50.914;13.858;2023-04-25T13:51:21;14.50;;;5.38;;
36189;SDS011;22232;50.914;13.858;2023-04-25T13:53:49;17.33;;;5.22;;
36189;SDS011;22232;50.914;13.858;2023-04-25T13:56:17;13.45;;;5.38;;
36189;SDS011;22232;50.914;13.858;2023-04-25T13:58:46;19.27;;;5.38;;
36189;SDS011;22232;50.914;13.858;2023-04-25T14:01:14;14.73;;;5.60;;
36189;SDS011;22232;50.914;13.858;2023-04-25T14:03:42;19.38;;;4.85;;
36189;SDS011;22232;50.914;13.858;2023-04-25T14:06:09;16.02;;;5.15;;
36189;SDS011;22232;50.914;13.858;2023-04-25T14:08:38;15.48;;;4.90;;
36189;SDS011;22232;50.914;13.858;2023-04-25T14:11:08;14.63;;;4.70;;
36189;SDS011;22232;50.914;13.858;2023-04-25T14:13:35;17.25;;;5.90;;
36189;SDS011;22232;50.914;13.858;2023-04-25T14:16:03;15.68;;;5.65;;
36189;SDS011;22232;50.914;13.858;2023-04-25T14:18:31;11.73;;;5.70;;
36189;SDS011;22232;50.914;13.858;2023-04-25T14:20:58;14.18;;;6.28;;
36189;SDS011;22232;50.914;13.858;2023-04-25T14:23:27;14.25;;;6.18;;
36189;SDS011;22232;50.914;13.858;2023-04-25T14:25:54;20.70;;;6.38;;
36189;SDS011;22232;50.914;13.858;2023-04-25T14:28:22;16.88;;;5.53;;
36189;SDS011;22232;50.914;13.858;2023-04-25T14:30:49;19.63;;;5.30;;
36189;SDS011;22232;50.914;13.858;2023-04-25T14:33:17;18.60;;;5.63;;
36189;SDS011;22232;50.914;13.858;2023-04-25T14:35:44;19.25;;;5.15;;
36189;SDS011;22232;50.914;13.858;2023-04-25T14:38:12;18.52;;;5.40;;
36189;SDS011;22232;50.914;13.858;2023-04-25T14:40:40;14.60;;;4.75;;
36189;SDS011;22232;50.914;13.858;2023-04-25T14:43:07;17.33;;;5.28;;
36189;SDS011;22232;50.914;13.858;2023-04-25T14:45:35;13.65;;;4.47;;
36189;SDS011;22232;50.914;13.858;2023-04-25T14:48:03;15.60;;;4.72;;
36189;SDS011;22232;50.914;13.858;2023-04-25T14:50:31;15.60;;;4.43;;
36189;SDS011;22232;50.914;13.858;2023-04-25T14:52:59;13.90;;;5.28;;
36189;SDS011;22232;50.914;13.858;2023-04-25T14:55:27;14.48;;;4.80;;
36189;SDS011;22232;50.914;13.858;2023-04-25T14:57:55;18.98;;;5.28;;
36189;SDS011;22232;50.914;13.858;2023-04-25T15:00:23;17.77;;;5.60;;
36189;SDS011;22232;50.914;13.858;2023-04-25T15:02:52;15.57;;;5.47;;